Nesenie raksti

Ziņas

Par Gliding.lv

Gliding.lv ir interneta vietne par planieriem un planierismu. Šeit būs atrodama informācija par iespējām pamēģināt, iesaistīties un organizēt planierisma aktivitātes. Izmanto Gliding.lv forumu, ja Tev ir kāda tēma diskusijai vai jautājums. Gliding.lv merķis ir informēt un apvienot planierisma interesentus, nodrošinot un apmainoties ar aktuālāko un arī bijušo. Lidojam!

Laiks Rīgā
3°
light intensity drizzle
mitrums: 93%
vējš: 6m/s DDR
Aug 7 • Zem 4
6°
Ses
6°
Svē
7°
Pir
5°
Otr
Meteo-dati no OpenWeatherMap

METAR

EVRA 061420Z 20012KT 6000 -DZ OVC004 04/03 Q0997 R18/290195 TEMPO 4000

EVLA 061420Z AUTO 23024KT 4000 BR OVC004/// 07/07 Q0998

EVVA 061420Z AUTO 23023KT 6000 OVC008 08/08 Q0994

Nesenie raksti

Pāriet uz rīkjoslu